sensor_id;sensor_type;location;lat;lon;timestamp;temperature;humidity
1361;DHT22;674;45.552;-122.600;2022-12-07T00:01:46;7.00;1.00
1361;DHT22;674;45.552;-122.600;2022-12-07T00:04:17;6.60;1.00
1361;DHT22;674;45.552;-122.600;2022-12-07T00:06:50;6.40;1.00
1361;DHT22;674;45.552;-122.600;2022-12-07T00:09:21;6.50;1.00
1361;DHT22;674;45.552;-122.600;2022-12-07T00:11:51;6.60;1.00
1361;DHT22;674;45.552;-122.600;2022-12-07T00:14:20;6.60;1.00
1361;DHT22;674;45.552;-122.600;2022-12-07T00:16:50;6.50;1.00
1361;DHT22;674;45.552;-122.600;2022-12-07T00:19:19;6.50;1.00
1361;DHT22;674;45.552;-122.600;2022-12-07T00:21:48;6.70;1.00
1361;DHT22;674;45.552;-122.600;2022-12-07T00:24:16;6.70;1.00
1361;DHT22;674;45.552;-122.600;2022-12-07T00:26:45;6.60;1.00
1361;DHT22;674;45.552;-122.600;2022-12-07T00:29:19;6.70;1.00
1361;DHT22;674;45.552;-122.600;2022-12-07T00:31:48;6.80;1.00
1361;DHT22;674;45.552;-122.600;2022-12-07T00:34:18;6.90;1.00
1361;DHT22;674;45.552;-122.600;2022-12-07T00:36:48;7.10;1.00
1361;DHT22;674;45.552;-122.600;2022-12-07T00:39:16;6.60;1.00
1361;DHT22;674;45.552;-122.600;2022-12-07T00:41:45;6.60;1.00
1361;DHT22;674;45.552;-122.600;2022-12-07T00:44:13;6.60;1.00
1361;DHT22;674;45.552;-122.600;2022-12-07T00:46:42;6.60;1.00
1361;DHT22;674;45.552;-122.600;2022-12-07T00:49:10;6.70;1.00
1361;DHT22;674;45.552;-122.600;2022-12-07T00:51:39;6.60;1.00
1361;DHT22;674;45.552;-122.600;2022-12-07T00:54:07;6.30;1.00
1361;DHT22;674;45.552;-122.600;2022-12-07T00:56:36;6.20;1.00
1361;DHT22;674;45.552;-122.600;2022-12-07T00:59:05;6.20;1.00
1361;DHT22;674;45.552;-122.600;2022-12-07T01:01:35;6.20;1.00
1361;DHT22;674;45.552;-122.600;2022-12-07T01:04:04;6.00;1.00
1361;DHT22;674;45.552;-122.600;2022-12-07T01:06:33;5.90;1.00
1361;DHT22;674;45.552;-122.600;2022-12-07T01:09:02;5.90;1.00
1361;DHT22;674;45.552;-122.600;2022-12-07T01:11:32;6.10;1.00
1361;DHT22;674;45.552;-122.600;2022-12-07T01:14:01;6.20;2.00
1361;DHT22;674;45.552;-122.600;2022-12-07T01:16:31;6.30;1.00
1361;DHT22;674;45.552;-122.600;2022-12-07T01:19:01;6.30;1.00
1361;DHT22;674;45.552;-122.600;2022-12-07T01:21:34;6.60;1.00
1361;DHT22;674;45.552;-122.600;2022-12-07T01:24:06;6.50;1.00
1361;DHT22;674;45.552;-122.600;2022-12-07T01:26:35;6.30;1.00
1361;DHT22;674;45.552;-122.600;2022-12-07T01:29:04;6.20;1.00
1361;DHT22;674;45.552;-122.600;2022-12-07T01:31:33;6.30;1.00
1361;DHT22;674;45.552;-122.600;2022-12-07T01:34:02;6.20;1.00
1361;DHT22;674;45.552;-122.600;2022-12-07T01:36:33;6.00;1.00
1361;DHT22;674;45.552;-122.600;2022-12-07T01:39:05;6.10;1.00
1361;DHT22;674;45.552;-122.600;2022-12-07T01:41:36;6.30;1.00
1361;DHT22;674;45.552;-122.600;2022-12-07T01:46:58;6.00;3.60
1361;DHT22;674;45.552;-122.600;2022-12-07T01:49:35;5.90;6.70
1361;DHT22;674;45.552;-122.600;2022-12-07T01:52:25;5.60;8.30
1361;DHT22;674;45.552;-122.600;2022-12-07T01:54:59;5.70;16.80
1361;DHT22;674;45.552;-122.600;2022-12-07T01:57:30;5.60;20.10
1361;DHT22;674;45.552;-122.600;2022-12-07T01:59:59;5.50;23.30
1361;DHT22;674;45.552;-122.600;2022-12-07T02:02:35;5.60;28.70
1361;DHT22;674;45.552;-122.600;2022-12-07T02:05:06;5.60;29.80
1361;DHT22;674;45.552;-122.600;2022-12-07T02:07:36;5.70;28.30
1361;DHT22;674;45.552;-122.600;2022-12-07T02:12:54;5.90;22.10
1361;DHT22;674;45.552;-122.600;2022-12-07T02:15:29;5.90;21.90
1361;DHT22;674;45.552;-122.600;2022-12-07T02:32:41;5.60;28.20
1361;DHT22;674;45.552;-122.600;2022-12-07T02:35:24;5.80;27.90
1361;DHT22;674;45.552;-122.600;2022-12-07T02:41:13;5.70;16.40
1361;DHT22;674;45.552;-122.600;2022-12-07T02:43:50;5.60;25.10
1361;DHT22;674;45.552;-122.600;2022-12-07T02:46:31;5.70;23.80
1361;DHT22;674;45.552;-122.600;2022-12-07T02:49:03;5.80;23.70
1361;DHT22;674;45.552;-122.600;2022-12-07T02:51:32;5.40;27.70
1361;DHT22;674;45.552;-122.600;2022-12-07T02:54:01;5.50;36.00
1361;DHT22;674;45.552;-122.600;2022-12-07T02:56:49;5.60;36.60
1361;DHT22;674;45.552;-122.600;2022-12-07T03:07:32;5.90;33.50
1361;DHT22;674;45.552;-122.600;2022-12-07T03:10:18;5.70;30.20
1361;DHT22;674;45.552;-122.600;2022-12-07T03:15:33;6.00;37.50
1361;DHT22;674;45.552;-122.600;2022-12-07T03:18:04;5.70;32.30
1361;DHT22;674;45.552;-122.600;2022-12-07T03:20:34;5.60;30.40
1361;DHT22;674;45.552;-122.600;2022-12-07T03:23:06;5.70;32.60
1361;DHT22;674;45.552;-122.600;2022-12-07T03:25:45;5.40;44.40
1361;DHT22;674;45.552;-122.600;2022-12-07T03:28:18;5.10;61.80
1361;DHT22;674;45.552;-122.600;2022-12-07T03:30:57;5.60;64.90
1361;DHT22;674;45.552;-122.600;2022-12-07T03:33:39;5.60;61.90
1361;DHT22;674;45.552;-122.600;2022-12-07T03:36:25;5.40;62.70
1361;DHT22;674;45.552;-122.600;2022-12-07T03:39:00;5.20;69.40
1361;DHT22;674;45.552;-122.600;2022-12-07T03:41:33;5.30;73.30
1361;DHT22;674;45.552;-122.600;2022-12-07T03:44:09;5.10;84.50
1361;DHT22;674;45.552;-122.600;2022-12-07T03:54:41;5.60;85.30
1361;DHT22;674;45.552;-122.600;2022-12-07T03:57:10;5.60;81.10
1361;DHT22;674;45.552;-122.600;2022-12-07T03:59:40;5.60;74.50
1361;DHT22;674;45.552;-122.600;2022-12-07T04:02:12;5.50;73.10
1361;DHT22;674;45.552;-122.600;2022-12-07T04:04:42;5.50;74.50
1361;DHT22;674;45.552;-122.600;2022-12-07T04:07:11;5.50;68.40
1361;DHT22;674;45.552;-122.600;2022-12-07T04:09:40;5.60;67.60
1361;DHT22;674;45.552;-122.600;2022-12-07T04:12:09;5.90;71.80
1361;DHT22;674;45.552;-122.600;2022-12-07T04:14:37;5.80;69.60
1361;DHT22;674;45.552;-122.600;2022-12-07T04:17:06;5.90;66.20
1361;DHT22;674;45.552;-122.600;2022-12-07T04:19:34;5.90;64.90
1361;DHT22;674;45.552;-122.600;2022-12-07T04:22:07;5.90;56.80
1361;DHT22;674;45.552;-122.600;2022-12-07T04:24:36;5.60;56.50
1361;DHT22;674;45.552;-122.600;2022-12-07T04:27:04;5.50;69.40
1361;DHT22;674;45.552;-122.600;2022-12-07T04:29:32;5.60;77.60
1361;DHT22;674;45.552;-122.600;2022-12-07T04:32:01;5.50;75.40
1361;DHT22;674;45.552;-122.600;2022-12-07T04:34:29;5.60;76.90
1361;DHT22;674;45.552;-122.600;2022-12-07T04:36:58;5.60;77.90
1361;DHT22;674;45.552;-122.600;2022-12-07T04:39:28;5.70;71.80
1361;DHT22;674;45.552;-122.600;2022-12-07T04:41:58;5.60;72.20
1361;DHT22;674;45.552;-122.600;2022-12-07T04:44:27;5.70;69.40
1361;DHT22;674;45.552;-122.600;2022-12-07T04:46:56;5.90;65.90
1361;DHT22;674;45.552;-122.600;2022-12-07T04:49:25;5.90;63.10
1361;DHT22;674;45.552;-122.600;2022-12-07T04:51:54;5.80;62.80
1361;DHT22;674;45.552;-122.600;2022-12-07T04:54:22;5.90;60.90
1361;DHT22;674;45.552;-122.600;2022-12-07T04:56:51;5.90;58.30
1361;DHT22;674;45.552;-122.600;2022-12-07T04:59:19;6.00;58.70
1361;DHT22;674;45.552;-122.600;2022-12-07T05:01:47;6.00;59.20
1361;DHT22;674;45.552;-122.600;2022-12-07T05:04:16;5.90;61.60
1361;DHT22;674;45.552;-122.600;2022-12-07T05:06:45;5.90;61.20
1361;DHT22;674;45.552;-122.600;2022-12-07T05:09:14;5.60;65.80
1361;DHT22;674;45.552;-122.600;2022-12-07T05:11:42;5.60;70.30
1361;DHT22;674;45.552;-122.600;2022-12-07T05:14:19;5.50;71.30
1361;DHT22;674;45.552;-122.600;2022-12-07T05:16:50;5.70;72.10
1361;DHT22;674;45.552;-122.600;2022-12-07T05:19:19;5.40;77.50
1361;DHT22;674;45.552;-122.600;2022-12-07T05:21:48;5.50;80.90
1361;DHT22;674;45.552;-122.600;2022-12-07T05:24:17;5.70;79.30
1361;DHT22;674;45.552;-122.600;2022-12-07T05:26:46;5.70;75.20
1361;DHT22;674;45.552;-122.600;2022-12-07T05:29:16;5.80;68.80
1361;DHT22;674;45.552;-122.600;2022-12-07T05:31:45;5.80;68.00
1361;DHT22;674;45.552;-122.600;2022-12-07T05:34:14;5.90;66.00
1361;DHT22;674;45.552;-122.600;2022-12-07T05:36:42;5.70;60.50
1361;DHT22;674;45.552;-122.600;2022-12-07T05:39:10;5.80;63.80
1361;DHT22;674;45.552;-122.600;2022-12-07T05:41:39;5.80;62.80
1361;DHT22;674;45.552;-122.600;2022-12-07T05:44:26;5.60;62.10
1361;DHT22;674;45.552;-122.600;2022-12-07T05:46:54;5.50;69.90
1361;DHT22;674;45.552;-122.600;2022-12-07T05:49:22;5.70;71.80
1361;DHT22;674;45.552;-122.600;2022-12-07T05:51:51;6.00;72.10
1361;DHT22;674;45.552;-122.600;2022-12-07T05:54:19;5.90;71.30
1361;DHT22;674;45.552;-122.600;2022-12-07T05:56:48;5.70;66.10
1361;DHT22;674;45.552;-122.600;2022-12-07T05:59:16;6.00;68.10
1361;DHT22;674;45.552;-122.600;2022-12-07T06:01:52;5.90;64.30
1361;DHT22;674;45.552;-122.600;2022-12-07T06:04:21;5.50;68.80
1361;DHT22;674;45.552;-122.600;2022-12-07T06:06:50;5.90;76.40
1361;DHT22;674;45.552;-122.600;2022-12-07T06:09:20;5.60;71.20
1361;DHT22;674;45.552;-122.600;2022-12-07T06:11:48;5.70;74.10
1361;DHT22;674;45.552;-122.600;2022-12-07T06:14:36;5.90;71.90
1361;DHT22;674;45.552;-122.600;2022-12-07T06:17:05;5.90;70.90
1361;DHT22;674;45.552;-122.600;2022-12-07T06:19:34;5.70;71.20
1361;DHT22;674;45.552;-122.600;2022-12-07T06:22:03;5.90;72.40
1361;DHT22;674;45.552;-122.600;2022-12-07T06:24:33;6.00;67.60
1361;DHT22;674;45.552;-122.600;2022-12-07T06:27:01;6.00;66.70
1361;DHT22;674;45.552;-122.600;2022-12-07T06:29:30;6.00;66.70
1361;DHT22;674;45.552;-122.600;2022-12-07T06:31:59;5.60;64.70
1361;DHT22;674;45.552;-122.600;2022-12-07T06:34:28;5.60;71.10
1361;DHT22;674;45.552;-122.600;2022-12-07T06:36:56;5.40;78.70
1361;DHT22;674;45.552;-122.600;2022-12-07T06:39:27;5.50;88.10
1361;DHT22;674;45.552;-122.600;2022-12-07T06:41:56;5.50;83.80
1361;DHT22;674;45.552;-122.600;2022-12-07T06:44:25;5.40;86.00
1361;DHT22;674;45.552;-122.600;2022-12-07T06:46:53;5.60;89.90
1361;DHT22;674;45.552;-122.600;2022-12-07T06:49:42;5.40;87.20
1361;DHT22;674;45.552;-122.600;2022-12-07T06:52:10;5.30;90.30
1361;DHT22;674;45.552;-122.600;2022-12-07T06:54:39;5.60;93.80
1361;DHT22;674;45.552;-122.600;2022-12-07T06:57:07;5.70;93.70
1361;DHT22;674;45.552;-122.600;2022-12-07T06:59:36;5.50;91.40
1361;DHT22;674;45.552;-122.600;2022-12-07T07:02:04;5.60;92.00
1361;DHT22;674;45.552;-122.600;2022-12-07T07:04:33;5.50;90.30
1361;DHT22;674;45.552;-122.600;2022-12-07T07:07:01;5.60;91.60
1361;DHT22;674;45.552;-122.600;2022-12-07T07:09:29;5.70;86.50
1361;DHT22;674;45.552;-122.600;2022-12-07T07:11:58;5.70;86.80
1361;DHT22;674;45.552;-122.600;2022-12-07T07:14:26;5.90;80.80
1361;DHT22;674;45.552;-122.600;2022-12-07T07:16:55;5.50;83.40
1361;DHT22;674;45.552;-122.600;2022-12-07T07:19:23;5.20;91.70
1361;DHT22;674;45.552;-122.600;2022-12-07T07:21:52;5.40;97.80
1361;DHT22;674;45.552;-122.600;2022-12-07T07:24:20;5.30;97.80
1361;DHT22;674;45.552;-122.600;2022-12-07T07:26:48;5.20;99.70
1361;DHT22;674;45.552;-122.600;2022-12-07T07:29:17;5.40;99.90
1361;DHT22;674;45.552;-122.600;2022-12-07T07:31:45;5.40;99.90
1361;DHT22;674;45.552;-122.600;2022-12-07T07:34:14;5.50;99.90
1361;DHT22;674;45.552;-122.600;2022-12-07T07:36:42;5.50;99.90
1361;DHT22;674;45.552;-122.600;2022-12-07T07:39:11;5.50;99.90
1361;DHT22;674;45.552;-122.600;2022-12-07T07:41:42;5.40;99.90
1361;DHT22;674;45.552;-122.600;2022-12-07T07:44:10;5.40;99.90
1361;DHT22;674;45.552;-122.600;2022-12-07T07:46:39;5.40;99.90
1361;DHT22;674;45.552;-122.600;2022-12-07T07:49:08;5.60;99.90
1361;DHT22;674;45.552;-122.600;2022-12-07T07:51:37;5.30;99.90
1361;DHT22;674;45.552;-122.600;2022-12-07T07:54:06;5.70;99.90
1361;DHT22;674;45.552;-122.600;2022-12-07T07:56:34;5.40;99.90
1361;DHT22;674;45.552;-122.600;2022-12-07T07:59:03;5.40;99.90
1361;DHT22;674;45.552;-122.600;2022-12-07T08:01:31;5.60;99.90
1361;DHT22;674;45.552;-122.600;2022-12-07T08:04:00;5.60;99.90
1361;DHT22;674;45.552;-122.600;2022-12-07T08:06:28;5.70;99.90
1361;DHT22;674;45.552;-122.600;2022-12-07T08:08:58;5.90;98.20
1361;DHT22;674;45.552;-122.600;2022-12-07T08:11:27;5.60;98.60
1361;DHT22;674;45.552;-122.600;2022-12-07T08:13:55;5.90;99.90
1361;DHT22;674;45.552;-122.600;2022-12-07T08:16:24;5.70;98.50
1361;DHT22;674;45.552;-122.600;2022-12-07T08:18:52;5.80;96.30
1361;DHT22;674;45.552;-122.600;2022-12-07T08:21:21;5.90;94.50
1361;DHT22;674;45.552;-122.600;2022-12-07T08:23:50;5.90;93.60
1361;DHT22;674;45.552;-122.600;2022-12-07T08:26:18;5.90;95.20
1361;DHT22;674;45.552;-122.600;2022-12-07T08:28:46;5.70;92.40
1361;DHT22;674;45.552;-122.600;2022-12-07T08:31:17;5.90;92.70
1361;DHT22;674;45.552;-122.600;2022-12-07T08:33:47;5.50;93.10
1361;DHT22;674;45.552;-122.600;2022-12-07T08:36:17;5.50;96.90
1361;DHT22;674;45.552;-122.600;2022-12-07T08:38:46;5.50;96.70
1361;DHT22;674;45.552;-122.600;2022-12-07T08:41:34;5.90;97.40
1361;DHT22;674;45.552;-122.600;2022-12-07T08:44:03;5.70;95.80
1361;DHT22;674;45.552;-122.600;2022-12-07T08:46:34;6.00;95.40
1361;DHT22;674;45.552;-122.600;2022-12-07T08:49:27;5.80;93.20
1361;DHT22;674;45.552;-122.600;2022-12-07T08:51:56;5.90;92.80
1361;DHT22;674;45.552;-122.600;2022-12-07T08:54:25;5.80;92.30
1361;DHT22;674;45.552;-122.600;2022-12-07T08:56:54;5.70;93.20
1361;DHT22;674;45.552;-122.600;2022-12-07T08:59:27;5.40;94.60
1361;DHT22;674;45.552;-122.600;2022-12-07T09:01:56;5.30;98.80
1361;DHT22;674;45.552;-122.600;2022-12-07T09:04:25;5.60;98.90
1361;DHT22;674;45.552;-122.600;2022-12-07T09:06:54;5.30;99.90
1361;DHT22;674;45.552;-122.600;2022-12-07T09:09:23;5.40;99.90
1361;DHT22;674;45.552;-122.600;2022-12-07T09:11:52;5.50;99.90
1361;DHT22;674;45.552;-122.600;2022-12-07T09:14:20;5.60;99.40
1361;DHT22;674;45.552;-122.600;2022-12-07T09:16:49;5.70;99.10
1361;DHT22;674;45.552;-122.600;2022-12-07T09:19:17;5.90;96.90
1361;DHT22;674;45.552;-122.600;2022-12-07T09:21:46;5.70;96.80
1361;DHT22;674;45.552;-122.600;2022-12-07T09:24:14;5.90;95.70
1361;DHT22;674;45.552;-122.600;2022-12-07T09:26:42;5.60;93.90
1361;DHT22;674;45.552;-122.600;2022-12-07T09:29:12;5.70;95.60
1361;DHT22;674;45.552;-122.600;2022-12-07T09:31:40;5.50;93.80
1361;DHT22;674;45.552;-122.600;2022-12-07T09:34:09;5.20;97.70
1361;DHT22;674;45.552;-122.600;2022-12-07T09:36:37;5.00;99.90
1361;DHT22;674;45.552;-122.600;2022-12-07T09:39:06;5.10;99.90
1361;DHT22;674;45.552;-122.600;2022-12-07T09:41:38;5.20;99.90
1361;DHT22;674;45.552;-122.600;2022-12-07T09:44:12;5.10;99.90
1361;DHT22;674;45.552;-122.600;2022-12-07T09:46:43;5.10;99.90
1361;DHT22;674;45.552;-122.600;2022-12-07T09:49:18;5.10;99.90
1361;DHT22;674;45.552;-122.600;2022-12-07T09:51:48;5.10;99.90
1361;DHT22;674;45.552;-122.600;2022-12-07T09:54:28;5.30;99.90
1361;DHT22;674;45.552;-122.600;2022-12-07T09:56:58;4.80;99.90
1361;DHT22;674;45.552;-122.600;2022-12-07T09:59:28;4.90;99.90
1361;DHT22;674;45.552;-122.600;2022-12-07T10:04:50;5.10;99.90
1361;DHT22;674;45.552;-122.600;2022-12-07T10:07:19;5.30;99.90
1361;DHT22;674;45.552;-122.600;2022-12-07T10:09:47;5.30;99.90
1361;DHT22;674;45.552;-122.600;2022-12-07T10:12:16;5.40;99.90
1361;DHT22;674;45.552;-122.600;2022-12-07T10:15:04;5.60;99.90
1361;DHT22;674;45.552;-122.600;2022-12-07T10:17:40;5.30;99.90
1361;DHT22;674;45.552;-122.600;2022-12-07T10:20:26;5.60;99.90
1361;DHT22;674;45.552;-122.600;2022-12-07T10:23:04;5.40;99.90
1361;DHT22;674;45.552;-122.600;2022-12-07T10:25:35;5.70;99.90
1361;DHT22;674;45.552;-122.600;2022-12-07T10:28:27;5.60;99.90
1361;DHT22;674;45.552;-122.600;2022-12-07T10:31:19;5.60;99.90
1361;DHT22;674;45.552;-122.600;2022-12-07T10:33:55;5.30;99.90
1361;DHT22;674;45.552;-122.600;2022-12-07T10:36:27;5.10;99.90
1361;DHT22;674;45.552;-122.600;2022-12-07T10:39:00;5.40;99.90
1361;DHT22;674;45.552;-122.600;2022-12-07T10:41:29;5.30;99.90
1361;DHT22;674;45.552;-122.600;2022-12-07T10:43:58;5.30;99.90
1361;DHT22;674;45.552;-122.600;2022-12-07T11:00:18;5.80;99.90
1361;DHT22;674;45.552;-122.600;2022-12-07T11:09:15;5.80;99.90
1361;DHT22;674;45.552;-122.600;2022-12-07T11:11:38;5.60;99.90
1361;DHT22;674;45.552;-122.600;2022-12-07T11:17:02;5.70;99.90
1361;DHT22;674;45.552;-122.600;2022-12-07T11:20:02;5.80;99.90
1361;DHT22;674;45.552;-122.600;2022-12-07T11:30:23;5.20;99.90
1361;DHT22;674;45.552;-122.600;2022-12-07T11:38:48;5.40;99.90
1361;DHT22;674;45.552;-122.600;2022-12-07T11:41:27;5.70;99.90
1361;DHT22;674;45.552;-122.600;2022-12-07T11:47:13;5.60;99.90
1361;DHT22;674;45.552;-122.600;2022-12-07T11:49:54;5.50;99.90
1361;DHT22;674;45.552;-122.600;2022-12-07T11:54:54;5.30;99.90
1361;DHT22;674;45.552;-122.600;2022-12-07T11:57:41;5.20;99.90
1361;DHT22;674;45.552;-122.600;2022-12-07T12:00:15;5.20;99.90
1361;DHT22;674;45.552;-122.600;2022-12-07T12:05:22;5.60;99.90
1361;DHT22;674;45.552;-122.600;2022-12-07T12:08:16;5.70;99.90
1361;DHT22;674;45.552;-122.600;2022-12-07T12:14:55;5.40;99.90
1361;DHT22;674;45.552;-122.600;2022-12-07T12:23:13;5.60;99.90
1361;DHT22;674;45.552;-122.600;2022-12-07T12:33:57;5.50;99.90
1361;DHT22;674;45.552;-122.600;2022-12-07T12:36:28;5.60;99.90
1361;DHT22;674;45.552;-122.600;2022-12-07T12:39:14;5.60;99.90
1361;DHT22;674;45.552;-122.600;2022-12-07T12:49:41;5.80;95.20
1361;DHT22;674;45.552;-122.600;2022-12-07T12:55:17;5.70;97.40
1361;DHT22;674;45.552;-122.600;2022-12-07T13:00:47;6.00;93.70
1361;DHT22;674;45.552;-122.600;2022-12-07T13:03:27;5.70;93.00
1361;DHT22;674;45.552;-122.600;2022-12-07T13:08:56;5.90;92.90
1361;DHT22;674;45.552;-122.600;2022-12-07T13:11:35;5.90;92.00
1361;DHT22;674;45.552;-122.600;2022-12-07T13:27:41;6.00;77.80
1361;DHT22;674;45.552;-122.600;2022-12-07T13:30:19;6.00;75.90
1361;DHT22;674;45.552;-122.600;2022-12-07T13:32:58;5.90;80.20
1361;DHT22;674;45.552;-122.600;2022-12-07T13:35:37;6.30;82.30
1361;DHT22;674;45.552;-122.600;2022-12-07T13:38:33;6.00;78.60
1361;DHT22;674;45.552;-122.600;2022-12-07T13:41:13;6.00;82.20
1361;DHT22;674;45.552;-122.600;2022-12-07T13:43:59;5.90;76.00
1361;DHT22;674;45.552;-122.600;2022-12-07T13:49:29;6.20;73.50
1361;DHT22;674;45.552;-122.600;2022-12-07T13:52:18;5.90;77.00
1361;DHT22;674;45.552;-122.600;2022-12-07T13:54:49;5.80;79.00
1361;DHT22;674;45.552;-122.600;2022-12-07T13:57:18;5.90;79.80
1361;DHT22;674;45.552;-122.600;2022-12-07T13:59:47;5.90;83.30
1361;DHT22;674;45.552;-122.600;2022-12-07T14:02:27;5.60;84.60
1361;DHT22;674;45.552;-122.600;2022-12-07T14:05:08;5.50;88.20
1361;DHT22;674;45.552;-122.600;2022-12-07T14:08:34;5.60;90.80
1361;DHT22;674;45.552;-122.600;2022-12-07T14:13:44;5.50;92.90
1361;DHT22;674;45.552;-122.600;2022-12-07T14:16:29;6.00;93.40
1361;DHT22;674;45.552;-122.600;2022-12-07T14:19:00;5.80;88.80
1361;DHT22;674;45.552;-122.600;2022-12-07T14:21:31;5.70;88.50
1361;DHT22;674;45.552;-122.600;2022-12-07T14:24:19;5.60;90.80
1361;DHT22;674;45.552;-122.600;2022-12-07T14:26:50;5.90;91.50
1361;DHT22;674;45.552;-122.600;2022-12-07T14:29:20;5.90;88.90
1361;DHT22;674;45.552;-122.600;2022-12-07T14:31:49;6.00;85.10
1361;DHT22;674;45.552;-122.600;2022-12-07T14:34:20;5.70;85.00
1361;DHT22;674;45.552;-122.600;2022-12-07T14:36:49;5.70;86.90
1361;DHT22;674;45.552;-122.600;2022-12-07T14:39:17;5.60;87.70
1361;DHT22;674;45.552;-122.600;2022-12-07T14:41:46;5.90;88.40
1361;DHT22;674;45.552;-122.600;2022-12-07T14:44:22;5.90;82.50
1361;DHT22;674;45.552;-122.600;2022-12-07T14:46:58;6.00;72.70
1361;DHT22;674;45.552;-122.600;2022-12-07T14:49:46;6.00;76.50
1361;DHT22;674;45.552;-122.600;2022-12-07T14:52:18;5.70;73.40
1361;DHT22;674;45.552;-122.600;2022-12-07T14:55:23;5.90;75.00
1361;DHT22;674;45.552;-122.600;2022-12-07T14:57:53;5.70;74.90
1361;DHT22;674;45.552;-122.600;2022-12-07T15:00:23;5.60;82.40
1361;DHT22;674;45.552;-122.600;2022-12-07T15:02:52;5.60;77.00
1361;DHT22;674;45.552;-122.600;2022-12-07T15:05:21;5.40;79.30
1361;DHT22;674;45.552;-122.600;2022-12-07T15:07:50;5.40;83.50
1361;DHT22;674;45.552;-122.600;2022-12-07T15:10:23;5.90;79.10
1361;DHT22;674;45.552;-122.600;2022-12-07T15:12:58;5.60;74.80
1361;DHT22;674;45.552;-122.600;2022-12-07T15:15:47;5.40;78.00
1361;DHT22;674;45.552;-122.600;2022-12-07T15:18:17;5.70;77.10
1361;DHT22;674;45.552;-122.600;2022-12-07T15:20:46;6.00;77.10
1361;DHT22;674;45.552;-122.600;2022-12-07T15:23:14;5.50;69.40
1361;DHT22;674;45.552;-122.600;2022-12-07T15:25:45;5.70;75.30
1361;DHT22;674;45.552;-122.600;2022-12-07T15:28:14;5.50;76.00
1361;DHT22;674;45.552;-122.600;2022-12-07T15:30:44;5.60;76.00
1361;DHT22;674;45.552;-122.600;2022-12-07T15:33:13;5.70;79.40
1361;DHT22;674;45.552;-122.600;2022-12-07T15:35:43;5.60;79.60
1361;DHT22;674;45.552;-122.600;2022-12-07T15:38:12;5.70;74.40
1361;DHT22;674;45.552;-122.600;2022-12-07T15:40:40;5.60;69.70
1361;DHT22;674;45.552;-122.600;2022-12-07T15:43:09;5.40;70.00
1361;DHT22;674;45.552;-122.600;2022-12-07T15:45:58;5.30;71.50
1361;DHT22;674;45.552;-122.600;2022-12-07T15:48:27;5.70;74.40
1361;DHT22;674;45.552;-122.600;2022-12-07T15:51:04;5.50;73.70
1361;DHT22;674;45.552;-122.600;2022-12-07T15:53:33;5.60;65.90
1361;DHT22;674;45.552;-122.600;2022-12-07T15:56:05;5.40;66.70
1361;DHT22;674;45.552;-122.600;2022-12-07T15:58:34;5.70;67.30
1361;DHT22;674;45.552;-122.600;2022-12-07T16:01:14;6.00;60.00
1361;DHT22;674;45.552;-122.600;2022-12-07T16:03:43;5.70;51.20
1361;DHT22;674;45.552;-122.600;2022-12-07T16:06:12;5.80;57.40
1361;DHT22;674;45.552;-122.600;2022-12-07T16:08:44;5.70;42.60
1361;DHT22;674;45.552;-122.600;2022-12-07T16:11:13;5.90;47.40
1361;DHT22;674;45.552;-122.600;2022-12-07T16:13:42;5.60;54.00
1361;DHT22;674;45.552;-122.600;2022-12-07T16:16:14;5.20;59.00
1361;DHT22;674;45.552;-122.600;2022-12-07T16:18:43;5.60;64.70
1361;DHT22;674;45.552;-122.600;2022-12-07T16:21:13;5.60;65.40
1361;DHT22;674;45.552;-122.600;2022-12-07T16:23:46;5.90;60.10
1361;DHT22;674;45.552;-122.600;2022-12-07T16:26:17;5.90;53.40
1361;DHT22;674;45.552;-122.600;2022-12-07T16:28:49;5.70;55.20
1361;DHT22;674;45.552;-122.600;2022-12-07T16:31:21;5.40;61.20
1361;DHT22;674;45.552;-122.600;2022-12-07T16:33:53;5.40;58.80
1361;DHT22;674;45.552;-122.600;2022-12-07T16:36:22;5.30;56.30
1361;DHT22;674;45.552;-122.600;2022-12-07T16:39:12;5.60;60.60
1361;DHT22;674;45.552;-122.600;2022-12-07T16:41:41;5.40;65.50
1361;DHT22;674;45.552;-122.600;2022-12-07T16:44:11;5.10;66.60
1361;DHT22;674;45.552;-122.600;2022-12-07T16:46:40;4.90;73.60
1361;DHT22;674;45.552;-122.600;2022-12-07T16:49:15;5.00;83.20
1361;DHT22;674;45.552;-122.600;2022-12-07T16:51:43;5.00;82.70
1361;DHT22;674;45.552;-122.600;2022-12-07T16:54:12;5.10;84.10
1361;DHT22;674;45.552;-122.600;2022-12-07T16:56:41;5.20;83.70
1361;DHT22;674;45.552;-122.600;2022-12-07T16:59:09;5.60;81.70
1361;DHT22;674;45.552;-122.600;2022-12-07T17:01:38;5.30;76.50
1361;DHT22;674;45.552;-122.600;2022-12-07T17:04:06;5.10;78.40
1361;DHT22;674;45.552;-122.600;2022-12-07T17:06:36;4.50;87.10
1361;DHT22;674;45.552;-122.600;2022-12-07T17:09:04;4.70;92.30
1361;DHT22;674;45.552;-122.600;2022-12-07T17:11:36;4.50;95.30
1361;DHT22;674;45.552;-122.600;2022-12-07T17:14:05;4.50;98.70
1361;DHT22;674;45.552;-122.600;2022-12-07T17:16:51;4.60;99.90
1361;DHT22;674;45.552;-122.600;2022-12-07T17:19:20;4.80;99.90
1361;DHT22;674;45.552;-122.600;2022-12-07T17:21:48;5.30;99.90
1361;DHT22;674;45.552;-122.600;2022-12-07T17:24:17;4.70;78.70
1361;DHT22;674;45.552;-122.600;2022-12-07T17:26:46;4.90;76.20
1361;DHT22;674;45.552;-122.600;2022-12-07T17:29:16;4.80;66.90
1361;DHT22;674;45.552;-122.600;2022-12-07T17:31:46;5.00;79.40
1361;DHT22;674;45.552;-122.600;2022-12-07T17:34:18;4.90;71.90
1361;DHT22;674;45.552;-122.600;2022-12-07T17:36:47;4.80;80.50
1361;DHT22;674;45.552;-122.600;2022-12-07T17:39:17;5.00;80.10
1361;DHT22;674;45.552;-122.600;2022-12-07T17:41:46;4.70;93.00
1361;DHT22;674;45.552;-122.600;2022-12-07T17:44:33;4.70;87.30
1361;DHT22;674;45.552;-122.600;2022-12-07T17:47:01;4.80;90.80
1361;DHT22;674;45.552;-122.600;2022-12-07T17:49:30;5.20;90.20
1361;DHT22;674;45.552;-122.600;2022-12-07T17:51:59;5.30;88.70
1361;DHT22;674;45.552;-122.600;2022-12-07T17:54:46;5.20;82.70
1361;DHT22;674;45.552;-122.600;2022-12-07T17:57:14;5.60;78.50
1361;DHT22;674;45.552;-122.600;2022-12-07T17:59:43;5.80;67.80
1361;DHT22;674;45.552;-122.600;2022-12-07T18:02:12;6.00;25.90
1361;DHT22;674;45.552;-122.600;2022-12-07T18:04:40;5.40;10.70
1361;DHT22;674;45.552;-122.600;2022-12-07T18:07:10;5.60;10.10
1361;DHT22;674;45.552;-122.600;2022-12-07T18:09:38;5.40;12.30
1361;DHT22;674;45.552;-122.600;2022-12-07T18:12:07;5.70;17.70
1361;DHT22;674;45.552;-122.600;2022-12-07T18:14:36;6.20;17.20
1361;DHT22;674;45.552;-122.600;2022-12-07T18:17:05;6.30;12.50
1361;DHT22;674;45.552;-122.600;2022-12-07T18:19:33;6.30;1.00
1361;DHT22;674;45.552;-122.600;2022-12-07T18:22:04;6.30;1.00
1361;DHT22;674;45.552;-122.600;2022-12-07T18:24:32;6.10;1.00
1361;DHT22;674;45.552;-122.600;2022-12-07T18:27:05;6.30;1.00
1361;DHT22;674;45.552;-122.600;2022-12-07T18:29:34;6.30;1.00
1361;DHT22;674;45.552;-122.600;2022-12-07T18:32:03;5.70;1.00
1361;DHT22;674;45.552;-122.600;2022-12-07T18:34:32;5.90;1.00
1361;DHT22;674;45.552;-122.600;2022-12-07T18:37:00;5.80;1.00
1361;DHT22;674;45.552;-122.600;2022-12-07T18:39:29;5.50;1.00
1361;DHT22;674;45.552;-122.600;2022-12-07T18:42:00;5.50;1.00